Pagrindinis puslapis
METAR-TAF:

METAR-TAF

Oro uostai :

Neapolis, Italija

platuma: 40-51N, ilguma: 014-18E, Aukštis: 88 m

Dabartinis oras

Ataskaita buvo paskelbta 30 minutes, ne 22:20 UTC
Vėjas 5 kt iš Rytų, svyruoja nuo Rytų/Šiaurės Rytų ir Pietryčių
Temperatūra 14°C
Drėgmė 38%
Slėgis 1026 hPa
Matomumas 10 km arba daugiau

METAR: LIRN 072220Z AUTO 09005KT 060V130 9999 NCD 14/M00 Q1026

Laikas: 00:50 (22:50 UTC)

Prognozė

Ataskaita buvo paskelbta 5 valandos ir 50 minutes, ne 17:00 UTC
Prognozė galioja nuo 07 metu 18 UTC su 08 metu 18 UTC
Vėjas 5 kt nuo kintamojo kryptimis
Matomumas 10 km arba daugiau
nėra debesų žemiau 1500 m ir nėra kamuolinių lietaus debesų

TAF: LIRN 071700Z 0718/0818 VRB05KT CAVOK

Orai ataskaitas ir orų prognozės (METAR, TAF).

turimą stotys yra geltonos ir raudonos taškus žemėlapyje.

Perkelti pele per norėdami pamatyti stoties vardą.

Tada spustelėkite, norėdami matyti oro stebėjimo ir prognozės.

Norėdami pakeisti žemėlapį: spustelėkite ant žalios mygtukų su juodo kryžiaus žemyn,; žalią mygtuką su brūkšneliu, jei norite nutolinti; arba žalių rodyklių gretimoms žemėlapius.


METAR-TAF: